createdAt,value
2022-10-10T00:00:33.190Z,86.85
2022-10-10T00:01:33.208Z,86.95
2022-10-10T00:02:33.170Z,86.95
2022-10-10T00:03:33.941Z,86.85
2022-10-10T00:04:33.138Z,86.99
2022-10-10T00:05:33.121Z,87.10
2022-10-10T00:06:33.735Z,87.10
2022-10-10T00:07:33.087Z,87.10
2022-10-10T00:08:33.088Z,86.99
2022-10-10T00:09:34.473Z,86.89
2022-10-10T00:10:33.051Z,86.79
2022-10-10T00:11:33.048Z,86.68
2022-10-10T00:12:33.027Z,86.54
2022-10-10T00:13:33.018Z,86.65
2022-10-10T00:14:33.020Z,86.44
2022-10-10T00:15:33.000Z,86.48
2022-10-10T00:16:32.979Z,86.58
2022-10-10T00:17:32.965Z,86.58
2022-10-10T00:18:32.952Z,86.89
2022-10-10T00:19:32.949Z,86.89
2022-10-10T00:20:32.928Z,86.99
2022-10-10T00:21:32.939Z,86.99
2022-10-10T00:22:32.907Z,87.30
2022-10-10T00:23:32.912Z,87.30
2022-10-10T00:24:32.884Z,87.51
2022-10-10T00:25:32.873Z,87.40
2022-10-10T00:26:32.882Z,87.71
2022-10-10T00:27:32.848Z,87.40
2022-10-10T00:28:32.922Z,87.30
2022-10-10T00:29:32.863Z,87.40
2022-10-10T00:30:32.814Z,87.61
2022-10-10T00:31:32.833Z,87.20
2022-10-10T00:32:32.790Z,87.20
2022-10-10T00:33:32.845Z,87.20
2022-10-10T00:34:32.763Z,87.10
2022-10-10T00:35:32.777Z,86.89
2022-10-10T00:36:32.742Z,86.99
2022-10-10T00:37:32.758Z,87.10
2022-10-10T00:38:32.741Z,86.99
2022-10-10T00:39:32.690Z,87.10
2022-10-10T00:40:32.734Z,86.89
2022-10-10T00:41:32.703Z,87.10
2022-10-10T00:42:32.653Z,86.99
2022-10-10T00:43:32.648Z,86.99
2022-10-10T00:44:32.631Z,87.20
2022-10-10T00:45:32.609Z,87.30
2022-10-10T00:46:32.628Z,87.30
2022-10-10T00:47:32.590Z,87.34
2022-10-10T00:48:32.584Z,87.34
2022-10-10T00:49:32.570Z,87.34
2022-10-10T00:50:32.549Z,87.55
2022-10-10T00:51:32.550Z,87.45
2022-10-10T00:52:32.528Z,87.30
2022-10-10T00:53:32.506Z,87.34
2022-10-10T00:54:32.512Z,87.20
2022-10-10T00:55:32.477Z,86.93
2022-10-10T00:56:32.479Z,86.99
2022-10-10T00:57:32.485Z,87.24
2022-10-10T00:58:32.468Z,87.40
2022-10-10T00:59:32.447Z,87.10
2022-10-10T01:00:32.436Z,87.13
2022-10-10T01:01:32.426Z,87.34
2022-10-10T01:02:32.397Z,87.45
2022-10-10T01:03:32.387Z,87.24
2022-10-10T01:04:32.367Z,87.13
2022-10-10T01:05:32.362Z,87.24
2022-10-10T01:06:32.353Z,87.13
2022-10-10T01:07:32.368Z,87.13
2022-10-10T01:08:32.354Z,87.04
2022-10-10T01:09:32.349Z,87.04
2022-10-10T01:10:32.307Z,87.04
2022-10-10T01:11:32.293Z,87.34
2022-10-10T01:12:32.265Z,87.55
2022-10-10T01:13:32.273Z,87.55
2022-10-10T01:14:32.246Z,87.55
2022-10-10T01:15:32.257Z,87.45
2022-10-10T01:16:32.256Z,87.45
2022-10-10T01:17:32.198Z,87.34
2022-10-10T01:18:32.193Z,87.34
2022-10-10T01:19:32.183Z,87.24
2022-10-10T01:20:32.161Z,87.24
2022-10-10T01:21:32.175Z,87.13
2022-10-10T01:22:32.905Z,87.04
2022-10-10T01:23:32.128Z,86.93
2022-10-10T01:24:32.112Z,87.04
2022-10-10T01:25:32.099Z,87.24
2022-10-10T01:26:32.104Z,87.34
2022-10-10T01:27:32.142Z,87.24
2022-10-10T01:28:32.110Z,87.24
2022-10-10T01:29:32.051Z,87.24
2022-10-10T01:30:32.049Z,87.34
2022-10-10T01:31:32.037Z,87.45
2022-10-10T01:32:32.028Z,87.34
2022-10-10T01:33:32.012Z,87.45
2022-10-10T01:34:32.010Z,87.34
2022-10-10T01:35:31.991Z,87.55
2022-10-10T01:36:31.971Z,87.49
2022-10-10T01:37:31.949Z,88.00
2022-10-10T01:38:31.939Z,88.20
2022-10-10T01:39:31.941Z,88.00
2022-10-10T01:40:31.944Z,88.00
2022-10-10T01:41:31.918Z,87.90
2022-10-10T01:42:31.888Z,88.00
2022-10-10T01:43:31.909Z,87.69
2022-10-10T01:44:31.865Z,87.79
2022-10-10T01:45:31.859Z,87.90
2022-10-10T01:46:31.858Z,87.79
2022-10-10T01:47:31.852Z,87.79
2022-10-10T01:48:31.831Z,87.69
2022-10-10T01:49:31.833Z,87.59
2022-10-10T01:50:31.801Z,87.59
2022-10-10T01:51:31.794Z,87.69
2022-10-10T01:52:31.777Z,87.69
2022-10-10T01:53:31.762Z,87.69
2022-10-10T01:54:31.763Z,87.79
2022-10-10T01:55:31.744Z,87.90
2022-10-10T01:56:31.739Z,87.90
2022-10-10T01:57:31.717Z,87.90
2022-10-10T01:58:31.694Z,87.69
2022-10-10T01:59:31.694Z,87.69
2022-10-10T02:00:31.682Z,87.79
2022-10-10T02:01:31.663Z,87.69
2022-10-10T02:02:31.664Z,87.59
2022-10-10T02:03:31.646Z,87.69
2022-10-10T02:04:31.623Z,87.69
2022-10-10T02:05:31.663Z,87.79
2022-10-10T02:06:31.614Z,87.90
2022-10-10T02:07:31.845Z,88.00
2022-10-10T02:08:31.592Z,87.90
2022-10-10T02:09:31.561Z,88.00
2022-10-10T02:10:31.565Z,88.10
2022-10-10T02:11:31.539Z,88.10
2022-10-10T02:12:31.537Z,88.10
2022-10-10T02:13:31.537Z,88.10
2022-10-10T02:14:31.498Z,88.20
2022-10-10T02:15:31.531Z,88.31
2022-10-10T02:16:31.524Z,88.31
2022-10-10T02:17:31.538Z,88.31
2022-10-10T02:18:31.459Z,88.31
2022-10-10T02:19:32.466Z,88.45
2022-10-10T02:20:31.440Z,88.51
2022-10-10T02:21:31.415Z,88.45
2022-10-10T02:22:31.432Z,88.35
2022-10-10T02:23:31.396Z,88.66
2022-10-10T02:24:31.387Z,88.66
2022-10-10T02:25:31.378Z,88.56
2022-10-10T02:26:31.349Z,88.56
2022-10-10T02:27:31.358Z,88.66
2022-10-10T02:28:31.371Z,88.56
2022-10-10T02:29:31.320Z,88.66
2022-10-10T02:30:31.306Z,88.76
2022-10-10T02:31:31.324Z,88.76
2022-10-10T02:32:31.304Z,88.66
2022-10-10T02:33:31.285Z,88.76
2022-10-10T02:34:31.266Z,88.76
2022-10-10T02:35:31.257Z,88.76
2022-10-10T02:36:31.245Z,88.96
2022-10-10T02:37:31.231Z,88.96
2022-10-10T02:38:31.214Z,89.17
2022-10-10T02:39:31.194Z,89.07
2022-10-10T02:40:31.189Z,89.17
2022-10-10T02:41:31.174Z,89.31
2022-10-10T02:42:31.184Z,89.38
2022-10-10T02:43:31.145Z,89.38
2022-10-10T02:44:31.144Z,89.38
2022-10-10T02:45:31.122Z,89.42
2022-10-10T02:46:31.115Z,89.52
2022-10-10T02:47:31.115Z,89.31
2022-10-10T02:48:31.113Z,89.42
2022-10-10T02:49:31.072Z,89.52
2022-10-10T02:50:31.062Z,89.42
2022-10-10T02:51:31.041Z,89.52
2022-10-10T02:52:31.041Z,89.73
2022-10-10T02:53:31.020Z,89.62
2022-10-10T02:54:31.009Z,89.62
2022-10-10T02:55:30.996Z,89.73
2022-10-10T02:56:31.002Z,89.83
2022-10-10T02:57:30.979Z,89.83
2022-10-10T02:58:30.969Z,89.73
2022-10-10T02:59:30.972Z,89.73
2022-10-10T03:00:30.939Z,89.73
2022-10-10T03:01:30.964Z,89.73
2022-10-10T03:02:30.918Z,89.73
2022-10-10T03:03:30.897Z,89.62
2022-10-10T03:04:30.914Z,89.73
2022-10-10T03:05:30.877Z,89.94
2022-10-10T03:06:30.875Z,90.14
2022-10-10T03:07:30.868Z,90.14
2022-10-10T03:08:30.837Z,90.14
2022-10-10T03:09:30.805Z,90.24
2022-10-10T03:10:30.817Z,90.24
2022-10-10T03:11:30.793Z,90.28
2022-10-10T03:12:30.785Z,90.49
2022-10-10T03:13:30.777Z,90.34
2022-10-10T03:14:30.765Z,90.24
2022-10-10T03:15:30.743Z,90.39
2022-10-10T03:16:30.733Z,90.49
2022-10-10T03:17:30.723Z,90.59
2022-10-10T03:18:30.713Z,90.49
2022-10-10T03:19:30.685Z,90.49
2022-10-10T03:20:30.688Z,90.39
2022-10-10T03:21:30.704Z,90.39
2022-10-10T03:22:30.692Z,90.28
2022-10-10T03:23:30.661Z,90.39
2022-10-10T03:24:30.645Z,90.49
2022-10-10T03:25:30.643Z,90.49
2022-10-10T03:26:30.633Z,90.49
2022-10-10T03:27:30.633Z,90.90
2022-10-10T03:28:30.650Z,91.00
2022-10-10T03:29:30.592Z,90.80
2022-10-10T03:30:30.610Z,90.90
2022-10-10T03:31:30.633Z,91.00
2022-10-10T03:32:30.572Z,90.90
2022-10-10T03:33:30.541Z,91.00
2022-10-10T03:34:30.509Z,91.11
2022-10-10T03:35:30.512Z,91.11
2022-10-10T03:36:30.490Z,91.21
2022-10-10T03:37:30.479Z,91.11
2022-10-10T03:38:30.480Z,91.25
2022-10-10T03:39:30.459Z,91.25
2022-10-10T03:40:30.961Z,91.36
2022-10-10T03:41:30.418Z,91.36
2022-10-10T03:42:30.417Z,91.25
2022-10-10T03:43:30.407Z,91.36
2022-10-10T03:44:30.416Z,91.46
2022-10-10T03:45:30.367Z,91.36
2022-10-10T03:46:30.357Z,91.46
2022-10-10T03:47:30.359Z,91.56
2022-10-10T03:48:30.347Z,91.66
2022-10-10T03:49:30.317Z,91.56
2022-10-10T03:50:30.330Z,91.66
2022-10-10T03:51:30.285Z,91.66
2022-10-10T03:52:30.288Z,91.77
2022-10-10T03:53:30.263Z,91.66
2022-10-10T03:54:30.255Z,91.77
2022-10-10T03:55:30.245Z,91.87
2022-10-10T03:56:30.226Z,91.77
2022-10-10T03:57:30.227Z,91.87
2022-10-10T03:58:30.205Z,92.12
2022-10-10T03:59:30.195Z,92.12
2022-10-10T04:00:30.178Z,92.22
2022-10-10T04:01:30.334Z,92.22
2022-10-10T04:02:30.162Z,92.33
2022-10-10T04:03:30.134Z,92.33
2022-10-10T04:04:30.132Z,92.33
2022-10-10T04:05:30.115Z,92.18
2022-10-10T04:06:30.113Z,92.08
2022-10-10T04:07:30.103Z,91.97
2022-10-10T04:08:30.075Z,91.97
2022-10-10T04:09:30.064Z,91.87
2022-10-10T04:10:30.070Z,91.77
2022-10-10T04:11:30.060Z,91.87
2022-10-10T04:12:30.041Z,91.77
2022-10-10T04:13:30.011Z,91.66
2022-10-10T04:14:30.000Z,91.66
2022-10-10T04:15:29.989Z,91.66
2022-10-10T04:16:29.982Z,91.66
2022-10-10T04:17:29.971Z,91.66
2022-10-10T04:18:29.979Z,91.87
2022-10-10T04:19:29.952Z,91.87
2022-10-10T04:20:29.933Z,91.97
2022-10-10T04:21:29.937Z,91.87
2022-10-10T04:22:29.924Z,91.97
2022-10-10T04:23:29.889Z,92.22
2022-10-10T04:24:29.879Z,92.43
2022-10-10T04:25:29.859Z,92.29
2022-10-10T04:26:29.856Z,92.18
2022-10-10T04:27:29.838Z,92.18
2022-10-10T04:28:29.875Z,92.29
2022-10-10T04:29:29.817Z,92.29
2022-10-10T04:30:29.798Z,92.18
2022-10-10T04:31:29.796Z,91.97
2022-10-10T04:32:29.777Z,91.77
2022-10-10T04:33:29.758Z,92.08
2022-10-10T04:34:29.748Z,92.02
2022-10-10T04:35:29.756Z,92.33
2022-10-10T04:36:29.734Z,92.63
2022-10-10T04:37:29.703Z,92.74
2022-10-10T04:38:29.702Z,92.74
2022-10-10T04:39:29.698Z,92.84
2022-10-10T04:40:29.806Z,92.74
2022-10-10T04:41:29.664Z,92.74
2022-10-10T04:42:29.673Z,92.43
2022-10-10T04:43:29.657Z,92.53
2022-10-10T04:44:29.626Z,92.74
2022-10-10T04:45:31.893Z,92.84
2022-10-10T04:46:30.622Z,92.84
2022-10-10T04:47:29.583Z,93.05
2022-10-10T04:48:29.588Z,93.15
2022-10-10T04:49:29.558Z,93.15
2022-10-10T04:50:29.552Z,93.15
2022-10-10T04:51:29.542Z,92.84
2022-10-10T04:52:29.535Z,92.94
2022-10-10T04:53:29.512Z,93.05
2022-10-10T04:54:29.525Z,93.05
2022-10-10T04:55:29.492Z,92.84
2022-10-10T04:56:29.481Z,92.84
2022-10-10T04:57:29.486Z,92.94
2022-10-10T04:58:29.461Z,92.74
2022-10-10T04:59:29.438Z,92.84
2022-10-10T05:00:29.444Z,92.63
2022-10-10T05:01:30.375Z,92.84
2022-10-10T05:02:29.450Z,93.05
2022-10-10T05:03:29.391Z,93.15
2022-10-10T05:04:29.390Z,93.25
2022-10-10T05:05:29.360Z,93.35
2022-10-10T05:06:29.347Z,93.35
2022-10-10T05:07:29.328Z,93.15
2022-10-10T05:08:29.326Z,93.25
2022-10-10T05:09:29.300Z,93.25
2022-10-10T05:10:29.329Z,93.25
2022-10-10T05:11:29.281Z,93.46
2022-10-10T05:12:29.280Z,93.40
2022-10-10T05:13:29.259Z,93.60
2022-10-10T05:14:29.256Z,93.60
2022-10-10T05:15:29.236Z,93.91
2022-10-10T05:16:29.230Z,94.02
2022-10-10T05:17:29.207Z,93.91
2022-10-10T05:18:29.209Z,93.91
2022-10-10T05:19:29.186Z,93.77
2022-10-10T05:20:29.164Z,93.46
2022-10-10T05:21:29.157Z,93.46
2022-10-10T05:22:29.154Z,93.25
2022-10-10T05:23:29.123Z,93.05
2022-10-10T05:24:29.125Z,93.15
2022-10-10T05:25:29.118Z,93.05
2022-10-10T05:26:29.092Z,92.94
2022-10-10T05:27:29.123Z,92.94
2022-10-10T05:28:29.133Z,92.74
2022-10-10T05:29:29.061Z,92.84
2022-10-10T05:30:29.053Z,95.78
2022-10-10T05:31:29.026Z,94.20
2022-10-10T05:32:29.002Z,92.61
2022-10-10T05:33:29.006Z,91.38
2022-10-10T05:34:29.544Z,93.12
2022-10-10T05:35:29.049Z,91.64
2022-10-10T05:37:45.609Z,90.67
2022-10-10T05:38:45.582Z,90.47
2022-10-10T05:39:45.577Z,90.42
2022-10-10T05:40:45.560Z,89.04
2022-10-10T05:41:45.560Z,88.37
2022-10-10T05:42:45.533Z,88.68
2022-10-10T05:43:45.521Z,87.85
2022-10-10T05:44:45.536Z,88.00
2022-10-10T05:45:45.498Z,87.07
2022-10-10T05:46:45.518Z,87.52
2022-10-10T05:47:46.179Z,88.86
2022-10-10T05:48:45.450Z,89.54
2022-10-10T05:49:45.442Z,88.98
2022-10-10T05:50:45.507Z,88.33
2022-10-10T05:51:45.434Z,86.68
2022-10-10T05:52:45.417Z,86.93
2022-10-10T05:53:45.400Z,86.89
2022-10-10T05:54:45.570Z,86.42
2022-10-10T05:55:45.367Z,87.13
2022-10-10T05:56:45.350Z,86.32
2022-10-10T05:57:45.353Z,86.35
2022-10-10T05:58:45.341Z,86.77
2022-10-10T05:59:45.331Z,87.32
2022-10-10T06:00:45.343Z,88.14
2022-10-10T06:01:45.313Z,87.94
2022-10-10T06:02:45.719Z,88.20
2022-10-10T06:03:45.284Z,87.59
2022-10-10T06:04:45.270Z,87.79
2022-10-10T06:05:45.336Z,87.18
2022-10-10T06:06:45.257Z,87.07
2022-10-10T06:08:04.724Z,87.38
2022-10-10T06:08:46.237Z,87.28
2022-10-10T06:09:45.234Z,87.28
2022-10-10T06:10:45.195Z,87.18
2022-10-10T06:11:45.183Z,86.72
2022-10-10T06:12:45.162Z,86.15
2022-10-10T06:13:45.205Z,86.80
2022-10-10T06:14:45.151Z,87.42
2022-10-10T06:15:45.852Z,87.98
2022-10-10T06:16:45.147Z,88.49
2022-10-10T06:17:45.097Z,89.01
2022-10-10T06:18:45.095Z,89.25
2022-10-10T06:19:45.072Z,89.36
2022-10-10T06:20:45.078Z,89.67
2022-10-10T06:21:45.065Z,89.77
2022-10-10T06:22:45.058Z,89.77
2022-10-10T06:23:45.020Z,89.97
2022-10-10T06:24:48.435Z,89.77
2022-10-10T06:25:46.047Z,89.97
2022-10-10T06:26:45.024Z,90.39
2022-10-10T06:27:44.994Z,90.28
2022-10-10T06:28:45.038Z,90.49
2022-10-10T06:29:44.951Z,90.49
2022-10-10T06:30:44.966Z,90.53
2022-10-10T06:31:45.041Z,90.39
2022-10-10T06:32:44.938Z,90.28
2022-10-10T06:33:44.921Z,90.18
2022-10-10T06:34:44.942Z,90.18
2022-10-10T06:35:44.932Z,89.97
2022-10-10T06:36:45.037Z,89.87
2022-10-10T06:37:47.236Z,89.77
2022-10-10T06:38:44.863Z,89.77
2022-10-10T06:39:44.835Z,89.52
2022-10-10T06:40:44.931Z,89.31
2022-10-10T06:41:44.813Z,89.01
2022-10-10T06:42:44.815Z,89.01
2022-10-10T06:43:44.781Z,88.70
2022-10-10T06:44:44.790Z,88.70
2022-10-10T06:45:44.805Z,88.49
2022-10-10T06:46:44.761Z,88.39
2022-10-10T06:47:44.740Z,88.39
2022-10-10T06:48:44.751Z,88.29
2022-10-10T06:49:44.704Z,88.04
2022-10-10T06:50:44.820Z,87.84
2022-10-10T06:51:44.716Z,87.73
2022-10-10T06:52:44.682Z,87.73
2022-10-10T06:53:44.659Z,87.73
2022-10-10T06:54:44.655Z,87.63
2022-10-10T06:55:44.662Z,87.63
2022-10-10T06:56:44.653Z,87.12
2022-10-10T06:57:44.615Z,86.91
2022-10-10T06:58:44.589Z,86.97
2022-10-10T06:59:44.645Z,86.77
2022-10-10T07:00:44.626Z,86.35
2022-10-10T07:01:44.651Z,86.35
2022-10-10T07:02:44.553Z,86.40
2022-10-10T07:03:44.648Z,86.50
2022-10-10T07:04:44.583Z,86.29
2022-10-10T07:05:44.554Z,86.40
2022-10-10T07:06:44.539Z,86.25
2022-10-10T07:07:44.487Z,86.25
2022-10-10T07:08:44.474Z,86.15
2022-10-10T07:09:44.474Z,86.15
2022-10-10T07:10:44.467Z,85.84
2022-10-10T07:11:44.457Z,85.74
2022-10-10T07:12:45.202Z,85.63
2022-10-10T07:13:44.452Z,85.63
2022-10-10T07:14:44.461Z,85.43
2022-10-10T07:15:44.414Z,85.43
2022-10-10T07:16:44.380Z,85.33
2022-10-10T07:17:44.359Z,85.22
2022-10-10T07:18:44.352Z,85.43
2022-10-10T07:19:44.375Z,85.53
2022-10-10T07:20:44.405Z,85.53
2022-10-10T07:21:44.305Z,85.53
2022-10-10T07:22:44.400Z,85.22
2022-10-10T07:23:44.302Z,85.33
2022-10-10T07:24:44.305Z,85.43
2022-10-10T07:25:44.298Z,85.53
2022-10-10T07:26:44.324Z,85.74
2022-10-10T07:27:44.262Z,85.63
2022-10-10T07:28:44.253Z,85.74
2022-10-10T07:29:44.228Z,85.63
2022-10-10T07:30:44.212Z,85.63
2022-10-10T07:31:44.192Z,85.63
2022-10-10T07:32:44.173Z,85.63
2022-10-10T07:33:49.753Z,85.49
2022-10-10T07:34:45.147Z,85.18
2022-10-10T07:35:44.150Z,85.08
2022-10-10T07:36:44.152Z,85.08
2022-10-10T07:37:44.136Z,84.53
2022-10-10T07:38:44.101Z,84.32
2022-10-10T07:39:44.215Z,84.12
2022-10-10T07:40:44.067Z,84.12
2022-10-10T07:41:44.077Z,83.91
2022-10-10T07:42:44.047Z,83.81
2022-10-10T07:43:44.089Z,83.70
2022-10-10T07:44:44.020Z,83.29
2022-10-10T07:45:44.468Z,83.19
2022-10-10T07:46:44.056Z,83.19
2022-10-10T07:47:44.006Z,83.19
2022-10-10T07:48:43.966Z,83.40
2022-10-10T07:49:44.018Z,83.29
2022-10-10T07:50:43.980Z,83.19
2022-10-10T07:51:43.954Z,83.29
2022-10-10T07:52:43.928Z,83.29
2022-10-10T07:53:43.925Z,83.29
2022-10-10T07:54:43.960Z,83.26
2022-10-10T07:55:43.876Z,83.15
2022-10-10T07:56:43.909Z,83.15
2022-10-10T07:57:43.858Z,83.05
2022-10-10T07:58:43.880Z,82.95
2022-10-10T07:59:43.837Z,82.95
2022-10-10T08:00:43.819Z,82.95
2022-10-10T08:01:43.860Z,83.05
2022-10-10T08:02:43.816Z,83.15
2022-10-10T08:03:43.799Z,83.26
2022-10-10T08:04:43.781Z,83.26
2022-10-10T08:05:43.761Z,83.15
2022-10-10T08:06:43.766Z,83.15
2022-10-10T08:07:43.722Z,83.26
2022-10-10T08:08:50.898Z,83.15
2022-10-10T08:09:44.711Z,83.26
2022-10-10T08:10:43.729Z,83.36
2022-10-10T08:11:44.216Z,83.26
2022-10-10T08:12:43.660Z,82.95
2022-10-10T08:13:43.659Z,83.05
2022-10-10T08:14:43.665Z,82.70
2022-10-10T08:15:43.638Z,82.60
2022-10-10T08:16:43.643Z,82.29
2022-10-10T08:17:43.602Z,82.26
2022-10-10T08:18:43.581Z,82.15
2022-10-10T08:19:43.570Z,81.85
2022-10-10T08:20:43.604Z,81.64
2022-10-10T08:21:43.552Z,81.23
2022-10-10T08:22:43.542Z,81.09
2022-10-10T08:23:43.517Z,81.20
2022-10-10T08:24:43.512Z,80.99
2022-10-10T08:25:43.587Z,80.74
2022-10-10T08:26:43.520Z,80.54
2022-10-10T08:27:43.471Z,80.23
2022-10-10T08:28:43.584Z,80.13
2022-10-10T08:29:43.462Z,79.79
2022-10-10T08:30:43.430Z,79.68
2022-10-10T08:31:43.414Z,79.27
2022-10-10T08:32:43.563Z,78.97
2022-10-10T08:33:43.385Z,78.83
2022-10-10T08:34:43.379Z,78.52
2022-10-10T08:35:43.350Z,78.21
2022-10-10T08:36:43.413Z,78.08
2022-10-10T08:37:43.383Z,77.67
2022-10-10T08:38:43.320Z,77.46
2022-10-10T08:39:43.616Z,77.32
2022-10-10T08:40:43.604Z,77.01
2022-10-10T08:41:43.341Z,76.81
2022-10-10T08:42:48.910Z,76.40
2022-10-10T08:43:44.284Z,76.20
2022-10-10T08:44:43.246Z,75.79
2022-10-10T08:45:43.227Z,75.85
2022-10-10T08:46:43.298Z,75.75
2022-10-10T08:47:43.302Z,75.75
2022-10-10T08:48:43.226Z,75.24
2022-10-10T08:49:43.235Z,75.34
2022-10-10T08:50:43.172Z,75.51
2022-10-10T08:51:43.156Z,75.21
2022-10-10T08:52:43.145Z,75.21
2022-10-10T08:53:43.125Z,75.10
2022-10-10T08:54:43.136Z,75.10
2022-10-10T08:55:43.106Z,75.10
2022-10-10T08:56:43.108Z,74.59
2022-10-10T08:57:43.100Z,74.39
2022-10-10T08:58:43.069Z,74.66
2022-10-10T08:59:43.097Z,74.35
2022-10-10T09:00:43.112Z,74.25
2022-10-10T09:02:18.150Z,74.46
2022-10-10T09:02:53.747Z,74.05
2022-10-10T09:03:44.056Z,74.05
2022-10-10T09:04:42.973Z,74.01
2022-10-10T09:05:43.016Z,74.01
2022-10-10T09:06:43.056Z,73.81
2022-10-10T09:07:42.949Z,73.71
2022-10-10T09:08:42.963Z,73.57
2022-10-10T09:09:42.925Z,73.36
2022-10-10T09:10:42.927Z,73.27
2022-10-10T09:11:42.908Z,72.86
2022-10-10T09:12:42.893Z,72.86
2022-10-10T09:13:42.879Z,72.62
2022-10-10T09:14:42.853Z,72.52
2022-10-10T09:15:42.843Z,72.41
2022-10-10T09:16:42.860Z,72.00
2022-10-10T09:17:42.828Z,71.91
2022-10-10T09:18:42.814Z,72.08
2022-10-10T09:19:42.790Z,71.67
2022-10-10T09:20:42.788Z,71.73
2022-10-10T09:21:42.790Z,71.43
2022-10-10T09:22:42.773Z,71.63
2022-10-10T09:23:42.752Z,71.23
2022-10-10T09:24:43.631Z,70.68
2022-10-10T09:25:42.808Z,70.68
2022-10-10T09:26:42.737Z,70.68
2022-10-10T09:27:42.683Z,70.48
2022-10-10T09:28:42.743Z,70.55
2022-10-10T09:29:42.666Z,69.53
2022-10-10T09:30:42.695Z,69.63
2022-10-10T09:31:42.791Z,69.63
2022-10-10T09:32:42.633Z,69.43
2022-10-10T09:33:42.712Z,69.43
2022-10-10T09:34:42.736Z,69.09
2022-10-10T09:35:42.605Z,69.19
2022-10-10T09:36:42.601Z,68.99
2022-10-10T09:37:47.254Z,68.75
2022-10-10T09:38:43.566Z,68.44
2022-10-10T09:39:42.590Z,68.35
2022-10-10T09:40:42.542Z,67.83
2022-10-10T09:41:42.519Z,67.91
2022-10-10T09:42:42.533Z,67.91
2022-10-10T09:43:42.548Z,67.91
2022-10-10T09:44:42.558Z,67.40
2022-10-10T09:45:42.515Z,67.30
2022-10-10T09:46:42.493Z,67.47
2022-10-10T09:47:42.426Z,67.47
2022-10-10T09:48:42.439Z,67.06
2022-10-10T09:49:42.460Z,66.76
2022-10-10T09:50:43.891Z,66.86
2022-10-10T09:51:43.082Z,66.96
2022-10-10T09:52:42.419Z,66.86
2022-10-10T09:53:42.463Z,67.06
2022-10-10T09:54:42.376Z,67.06
2022-10-10T09:55:42.348Z,66.86
2022-10-10T09:56:42.318Z,66.86
2022-10-10T09:57:42.302Z,67.16
2022-10-10T09:58:42.282Z,67.47
2022-10-10T09:59:42.283Z,67.57
2022-10-10T10:00:42.374Z,67.67
2022-10-10T10:01:42.258Z,67.57
2022-10-10T10:02:42.241Z,67.30
2022-10-10T10:03:42.264Z,67.80
2022-10-10T10:04:42.214Z,68.11
2022-10-10T10:05:42.217Z,68.11
2022-10-10T10:06:42.229Z,68.41
2022-10-10T10:07:42.180Z,68.41
2022-10-10T10:08:42.778Z,68.52
2022-10-10T10:09:42.160Z,68.62
2022-10-10T10:10:42.184Z,68.62
2022-10-10T10:11:42.153Z,68.52
2022-10-10T10:12:42.119Z,68.72
2022-10-10T10:13:42.115Z,68.62
2022-10-10T10:14:42.086Z,68.28
2022-10-10T10:15:42.086Z,68.18
2022-10-10T10:16:42.073Z,68.28
2022-10-10T10:17:42.039Z,68.28
2022-10-10T10:18:42.041Z,68.15
2022-10-10T10:19:42.051Z,67.84
2022-10-10T10:20:42.011Z,68.05
2022-10-10T10:21:42.018Z,67.84
2022-10-10T10:22:42.018Z,68.05
2022-10-10T10:23:41.968Z,67.54
2022-10-10T10:24:42.015Z,67.84
2022-10-10T10:25:41.996Z,68.15
2022-10-10T10:26:41.948Z,68.25
2022-10-10T10:27:41.925Z,67.94
2022-10-10T10:28:41.979Z,67.74
2022-10-10T10:29:41.918Z,67.64
2022-10-10T10:30:41.892Z,67.44
2022-10-10T10:31:43.945Z,67.44
2022-10-10T10:32:41.866Z,67.33
2022-10-10T10:33:41.862Z,67.33
2022-10-10T10:34:41.843Z,67.54
2022-10-10T10:35:41.815Z,67.64
2022-10-10T10:36:41.794Z,67.84
2022-10-10T10:37:41.793Z,67.74
2022-10-10T10:38:41.765Z,67.64
2022-10-10T10:39:41.827Z,67.54
2022-10-10T10:40:41.805Z,67.24
2022-10-10T10:41:41.817Z,67.03
2022-10-10T10:42:41.776Z,67.03
2022-10-10T10:43:41.722Z,67.33
2022-10-10T10:44:41.713Z,67.03
2022-10-10T10:45:41.681Z,66.63
2022-10-10T10:46:41.709Z,66.80
2022-10-10T10:47:41.700Z,66.69
2022-10-10T10:48:41.657Z,66.90
2022-10-10T10:49:41.651Z,66.90
2022-10-10T10:50:41.618Z,66.39
2022-10-10T10:51:41.627Z,66.56
2022-10-10T10:52:41.619Z,66.56
2022-10-10T10:53:41.584Z,66.66
2022-10-10T10:54:42.430Z,66.77
2022-10-10T10:55:41.630Z,66.77
2022-10-10T10:56:41.560Z,66.46
2022-10-10T10:58:04.038Z,66.77
2022-10-10T10:59:23.536Z,66.77
2022-10-10T11:00:20.257Z,66.46
2022-10-10T11:01:23.497Z,66.66
2022-10-10T11:01:56.259Z,66.36
2022-10-10T11:03:09.815Z,65.95
2022-10-10T11:05:17.385Z,66.16
2022-10-10T11:05:23.666Z,66.46
2022-10-10T11:05:43.297Z,66.36
2022-10-10T11:06:49.396Z,66.26
2022-10-10T11:07:42.655Z,66.26
2022-10-10T11:08:41.464Z,66.26
2022-10-10T11:09:50.518Z,66.26
2022-10-10T11:10:42.353Z,66.26
2022-10-10T11:11:41.357Z,66.43
2022-10-10T11:12:41.394Z,66.13
2022-10-10T11:13:41.335Z,66.23
2022-10-10T11:14:41.583Z,66.33
2022-10-10T11:16:06.118Z,66.53
2022-10-10T11:16:49.304Z,66.91
2022-10-10T11:17:42.317Z,66.91
2022-10-10T11:18:41.267Z,66.09
2022-10-10T11:19:41.331Z,65.79
2022-10-10T11:20:41.268Z,65.79
2022-10-10T11:21:41.234Z,65.89
2022-10-10T11:22:41.201Z,65.79
2022-10-10T11:23:41.272Z,66.16
2022-10-10T11:24:41.195Z,66.27
2022-10-10T11:25:41.159Z,65.96
2022-10-10T11:26:41.155Z,65.66
2022-10-10T11:27:41.171Z,65.36
2022-10-10T11:28:42.491Z,65.56
2022-10-10T11:29:41.162Z,65.56
2022-10-10T11:30:41.134Z,65.76
2022-10-10T11:31:41.093Z,65.76
2022-10-10T11:32:41.059Z,65.56
2022-10-10T11:33:41.077Z,65.25
2022-10-10T11:34:41.155Z,65.12
2022-10-10T11:35:41.032Z,65.12
2022-10-10T11:36:41.069Z,64.92
2022-10-10T11:37:41.022Z,64.92
2022-10-10T11:38:40.999Z,64.92
2022-10-10T11:39:41.306Z,64.89
2022-10-10T11:40:40.960Z,64.72
2022-10-10T11:41:40.959Z,64.69
2022-10-10T11:42:40.955Z,64.58
2022-10-10T11:43:40.934Z,64.58
2022-10-10T11:44:40.929Z,64.69
2022-10-10T11:45:40.918Z,64.69
2022-10-10T11:46:40.894Z,64.58
2022-10-10T11:47:40.884Z,64.38
2022-10-10T11:48:40.883Z,64.35
2022-10-10T11:49:40.889Z,64.55
2022-10-10T11:50:40.864Z,64.35
2022-10-10T11:51:40.832Z,64.04
2022-10-10T11:52:40.847Z,63.75
2022-10-10T11:53:40.800Z,63.44
2022-10-10T11:54:40.806Z,63.34
2022-10-10T11:55:40.828Z,63.44
2022-10-10T11:56:40.917Z,63.64
2022-10-10T11:57:40.958Z,63.54
2022-10-10T11:58:41.066Z,63.64
2022-10-10T11:59:40.738Z,63.64
2022-10-10T12:00:40.744Z,63.44
2022-10-10T12:01:40.806Z,63.41
2022-10-10T12:02:40.696Z,63.61
2022-10-10T12:03:40.675Z,63.71
2022-10-10T12:04:40.676Z,63.51
2022-10-10T12:05:40.910Z,63.61
2022-10-10T12:06:40.647Z,63.41
2022-10-10T12:07:40.657Z,63.51
2022-10-10T12:08:40.742Z,63.61
2022-10-10T12:09:40.659Z,63.71
2022-10-10T12:10:40.586Z,63.92
2022-10-10T12:11:40.596Z,63.92
2022-10-10T12:12:40.562Z,64.09
2022-10-10T12:13:41.274Z,63.89
2022-10-10T12:14:40.537Z,63.99
2022-10-10T12:15:44.445Z,63.99
2022-10-10T12:16:41.598Z,63.58
2022-10-10T12:17:40.510Z,63.38
2022-10-10T12:18:40.516Z,63.58
2022-10-10T12:19:40.568Z,63.68
2022-10-10T12:20:40.474Z,63.58
2022-10-10T12:21:40.458Z,63.68
2022-10-10T12:22:40.441Z,63.68
2022-10-10T12:23:40.413Z,63.99
2022-10-10T12:24:43.019Z,63.89
2022-10-10T12:25:40.406Z,63.89
2022-10-10T12:26:40.406Z,63.99
2022-10-10T12:27:40.465Z,64.19
2022-10-10T12:28:40.393Z,64.19
2022-10-10T12:29:40.362Z,64.19
2022-10-10T12:30:40.339Z,64.39
2022-10-10T12:31:40.339Z,64.59
2022-10-10T12:32:40.314Z,64.90
2022-10-10T12:33:41.058Z,64.26
2022-10-10T12:34:40.319Z,63.96
2022-10-10T12:35:43.055Z,63.76
2022-10-10T12:36:40.287Z,63.85
2022-10-10T12:37:40.281Z,63.85
2022-10-10T12:38:40.273Z,63.85
2022-10-10T12:39:40.212Z,63.85
2022-10-10T12:40:40.204Z,64.06
2022-10-10T12:41:44.672Z,63.96
2022-10-10T12:42:41.191Z,63.85
2022-10-10T12:43:40.162Z,63.73
2022-10-10T12:44:40.457Z,63.42
2022-10-10T12:45:40.361Z,62.92
2022-10-10T12:46:40.144Z,63.12
2022-10-10T12:48:03.487Z,63.32
2022-10-10T12:48:41.352Z,63.42
2022-10-10T12:49:40.144Z,63.32
2022-10-10T12:50:40.074Z,63.52
2022-10-10T12:51:40.053Z,63.52
2022-10-10T12:52:40.034Z,63.42
2022-10-10T12:53:40.033Z,63.42